Time;durP1;ratioP1;P1;durP2;ratioP2;P2;SDS_P1;SDS_P2;PMS_P1;PMS_P2;Temp;Humidity;BMP_temperature;BMP_pressure;BME280_temperature;BME280_humidity;BME280_pressure;Samples;Min_cycle;Max_cycle;Signal;HPM_P1;HPM_P2
2023/05/02 00:01:42;;;;;;;36.92;24.30;;;;;;;;;;5072626;27;99934;-80
2023/05/02 00:04:08;;;;;;;33.78;22.52;;;;;;;;;;5074516;27;98262;-80
2023/05/02 00:06:35;;;;;;;30.08;20.60;;;;;;;;;;5074195;27;99469;-77
2023/05/02 00:09:02;;;;;;;35.05;22.35;;;;;;;;;;5073368;27;99862;-79
2023/05/02 00:11:28;;;;;;;30.17;19.50;;;;;;;;;;5073679;27;98266;-77
2023/05/02 00:13:55;;;;;;;33.50;20.52;;;;;;;;;;5076787;27;98607;-78
2023/05/02 00:16:21;;;;;;;32.92;19.98;;;;;;;;;;5073205;27;98247;-79
2023/05/02 00:18:48;;;;;;;27.88;18.17;;;;;;;;;;5072538;27;98541;-79
2023/05/02 00:21:14;;;;;;;28.95;16.95;;;;;;;;;;5073959;27;100207;-79
2023/05/02 00:23:41;;;;;;;24.80;14.68;;;;;;;;;;5073240;27;98259;-79
2023/05/02 00:26:08;;;;;;;21.38;13.73;;;;;;;;;;5074025;27;99361;-80
2023/05/02 00:28:37;;;;;;;20.17;12.63;;;;;;;;;;5067911;27;98936;-80
2023/05/02 00:31:03;;;;;;;18.20;10.45;;;;;;;;;;5070580;27;98259;-78
2023/05/02 00:33:30;;;;;;;15.27;10.63;;;;;;;;;;5070998;27;99264;-80
2023/05/02 00:35:57;;;;;;;18.20;10.57;;;;;;;;;;5072775;27;100118;-80
2023/05/02 00:38:23;;;;;;;14.18;10.23;;;;;;;;;;5070893;27;98863;-80
2023/05/02 00:40:51;;;;;;;15.13;10.63;;;;;;;;;;5071053;27;99583;-80
2023/05/02 00:43:18;;;;;;;18.45;10.45;;;;;;;;;;5069166;27;98290;-80
2023/05/02 00:45:46;;;;;;;17.10;10.82;;;;;;;;;;5070744;27;99106;-81
2023/05/02 00:48:12;;;;;;;15.05;8.98;;;;;;;;;;5070206;27;100357;-81
2023/05/02 00:50:40;;;;;;;13.43;9.45;;;;;;;;;;5069957;27;98166;-79
2023/05/02 00:53:07;;;;;;;20.50;10.20;;;;;;;;;;5068781;27;99608;-78
2023/05/02 00:55:34;;;;;;;15.55;8.57;;;;;;;;;;5070100;27;98842;-80
2023/05/02 00:58:03;;;;;;;13.68;10.23;;;;;;;;;;5072929;27;98178;-80
2023/05/02 01:00:35;;;;;;;22.40;9.20;;;;;;;;;;5068779;27;99233;-80
2023/05/02 01:03:10;;;;;;;13.27;8.88;;;;;;;;;;5070320;27;98187;-80
2023/05/02 01:05:47;;;;;;;12.68;8.18;;;;;;;;;;5069372;27;98528;-80
2023/05/02 01:08:27;;;;;;;16.23;7.18;;;;;;;;;;5068771;27;98910;-79
2023/05/02 01:11:10;;;;;;;13.73;7.35;;;;;;;;;;5067967;27;98340;-81
2023/05/02 01:13:37;;;;;;;13.65;5.10;;;;;;;;;;5070004;27;99228;-79
2023/05/02 01:16:04;;;;;;;13.57;5.28;;;;;;;;;;5048771;27;99388;-79
2023/05/02 01:18:32;;;;;;;11.40;3.60;;;;;;;;;;5068263;27;98257;-80
2023/05/02 01:21:03;;;;;;;8.27;3.30;;;;;;;;;;5072451;27;98658;-79
2023/05/02 01:23:39;;;;;;;9.27;3.05;;;;;;;;;;5062331;27;98284;-80
2023/05/02 01:26:25;;;;;;;5.68;2.53;;;;;;;;;;5067979;27;98518;-79
2023/05/02 01:28:57;;;;;;;4.70;2.13;;;;;;;;;;5063859;27;101535;-78
2023/05/02 01:31:25;;;;;;;4.88;1.98;;;;;;;;;;5069385;27;98170;-80
2023/05/02 01:33:53;;;;;;;6.93;2.50;;;;;;;;;;5068505;27;98414;-80
2023/05/02 01:36:20;;;;;;;10.10;2.58;;;;;;;;;;5063001;27;100544;-79
2023/05/02 01:38:48;;;;;;;9.15;2.72;;;;;;;;;;5069606;27;98323;-79
2023/05/02 01:41:16;;;;;;;5.93;2.33;;;;;;;;;;5067689;27;98949;-79
2023/05/02 01:43:43;;;;;;;9.65;3.10;;;;;;;;;;5070630;27;102037;-79
2023/05/02 01:46:10;;;;;;;11.70;3.78;;;;;;;;;;5058407;27;101220;-78
2023/05/02 01:48:37;;;;;;;9.30;2.95;;;;;;;;;;5067752;27;98994;-79
2023/05/02 01:51:04;;;;;;;11.50;3.58;;;;;;;;;;5070039;27;98248;-79
2023/05/02 01:53:32;;;;;;;19.23;3.30;;;;;;;;;;5068461;27;98739;-80
2023/05/02 01:55:59;;;;;;;20.13;4.18;;;;;;;;;;5067844;27;99966;-80
2023/05/02 01:58:27;;;;;;;8.45;3.17;;;;;;;;;;5068131;27;98168;-81
2023/05/02 02:00:55;;;;;;;5.65;2.38;;;;;;;;;;5068373;27;99862;-80
2023/05/02 02:03:22;;;;;;;13.77;3.45;;;;;;;;;;5071658;27;98558;-80
2023/05/02 02:05:53;;;;;;;8.65;2.80;;;;;;;;;;5068614;27;98446;-79
2023/05/02 02:08:19;;;;;;;10.95;3.05;;;;;;;;;;5067789;27;98977;-80
2023/05/02 02:10:49;;;;;;;12.10;2.70;;;;;;;;;;5063295;27;98408;-79
2023/05/02 02:13:17;;;;;;;9.45;2.65;;;;;;;;;;5066354;27;100383;-80
2023/05/02 02:15:45;;;;;;;8.75;2.83;;;;;;;;;;5060728;27;98974;-80
2023/05/02 02:18:13;;;;;;;16.73;3.25;;;;;;;;;;5069284;27;98139;-79
2023/05/02 02:20:42;;;;;;;9.38;2.63;;;;;;;;;;5068577;27;99570;-79
2023/05/02 02:23:09;;;;;;;16.83;3.17;;;;;;;;;;5067479;27;98795;-79
2023/05/02 02:25:36;;;;;;;10.10;3.30;;;;;;;;;;5070528;27;98152;-80
2023/05/02 02:28:03;;;;;;;11.85;2.38;;;;;;;;;;5068840;27;101743;-80
2023/05/02 02:30:29;;;;;;;13.70;2.45;;;;;;;;;;5067988;27;98295;-79
2023/05/02 02:32:56;;;;;;;11.95;2.65;;;;;;;;;;5069336;27;98771;-79
2023/05/02 02:35:23;;;;;;;6.82;2.10;;;;;;;;;;5065174;27;99079;-79
2023/05/02 02:38:04;;;;;;;6.68;2.47;;;;;;;;;;5067507;27;98325;-79
2023/05/02 02:40:33;;;;;;;6.40;2.08;;;;;;;;;;5068332;27;98260;-81
2023/05/02 02:43:00;;;;;;;7.50;1.95;;;;;;;;;;5067510;27;98778;-79
2023/05/02 02:45:45;;;;;;;10.32;2.13;;;;;;;;;;5068051;27;98256;-79
2023/05/02 02:48:12;;;;;;;9.48;2.10;;;;;;;;;;5071296;27;98420;-78
2023/05/02 02:50:45;;;;;;;4.43;2.25;;;;;;;;;;5068801;27;97955;-78
2023/05/02 02:53:17;;;;;;;5.00;2.08;;;;;;;;;;5068824;27;98404;-78
2023/05/02 02:55:46;;;;;;;3.30;1.77;;;;;;;;;;5068421;27;98822;-80
2023/05/02 02:58:18;;;;;;;10.80;2.22;;;;;;;;;;5068066;27;98177;-81
2023/05/02 03:00:45;;;;;;;12.65;2.75;;;;;;;;;;5067000;27;99644;-79
2023/05/02 03:03:13;;;;;;;8.73;2.00;;;;;;;;;;5067598;27;100265;-80
2023/05/02 03:05:41;;;;;;;5.05;1.90;;;;;;;;;;5067863;27;98337;-80
2023/05/02 03:08:08;;;;;;;9.15;2.95;;;;;;;;;;5066994;27;99344;-80
2023/05/02 03:10:34;;;;;;;7.82;2.08;;;;;;;;;;5070208;27;99880;-78
2023/05/02 03:13:01;;;;;;;11.63;2.20;;;;;;;;;;5066342;27;100993;-79
2023/05/02 03:15:46;;;;;;;5.00;2.00;;;;;;;;;;5068094;27;98726;-79
2023/05/02 03:18:13;;;;;;;13.75;2.30;;;;;;;;;;5061237;27;98410;-80
2023/05/02 03:20:39;;;;;;;6.47;2.25;;;;;;;;;;5068757;27;99282;-78
2023/05/02 03:23:05;;;;;;;11.23;3.33;;;;;;;;;;5068080;27;101709;-79
2023/05/02 03:25:32;;;;;;;9.23;2.40;;;;;;;;;;5066629;27;98445;-80
2023/05/02 03:27:59;;;;;;;8.52;2.90;;;;;;;;;;5058940;27;102838;-80
2023/05/02 03:30:25;;;;;;;9.10;2.30;;;;;;;;;;5068612;27;100802;-79
2023/05/02 03:32:51;;;;;;;4.97;2.33;;;;;;;;;;5071304;27;99537;-80
2023/05/02 03:35:18;;;;;;;7.35;2.58;;;;;;;;;;5066616;27;99322;-80
2023/05/02 03:37:47;;;;;;;6.15;1.85;;;;;;;;;;5066015;27;98340;-79
2023/05/02 03:40:13;;;;;;;11.40;3.20;;;;;;;;;;5068854;27;98165;-80
2023/05/02 03:42:40;;;;;;;9.90;2.17;;;;;;;;;;5065624;27;100495;-79
2023/05/02 03:45:18;;;;;;;12.07;2.53;;;;;;;;;;5065651;27;98410;-80
2023/05/02 03:47:46;;;;;;;9.68;2.55;;;;;;;;;;5049153;27;98882;-79
2023/05/02 03:50:13;;;;;;;10.27;2.67;;;;;;;;;;5066576;27;99944;-79
2023/05/02 03:52:41;;;;;;;6.05;2.33;;;;;;;;;;5065745;27;98403;-80
2023/05/02 03:55:08;;;;;;;8.68;2.33;;;;;;;;;;5061732;27;101242;-80
2023/05/02 03:57:34;;;;;;;5.03;2.33;;;;;;;;;;5068155;27;98934;-79
2023/05/02 04:00:01;;;;;;;5.53;1.98;;;;;;;;;;5067121;27;98539;-80
2023/05/02 04:02:36;;;;;;;7.13;2.40;;;;;;;;;;5064540;27;98498;-81
2023/05/02 04:05:07;;;;;;;13.55;2.67;;;;;;;;;;5069989;27;98467;-79
2023/05/02 04:07:38;;;;;;;11.13;2.80;;;;;;;;;;5068389;27;100452;-81
2023/05/02 04:10:06;;;;;;;11.90;2.38;;;;;;;;;;5069740;27;101285;-79
2023/05/02 04:12:38;;;;;;;7.22;2.70;;;;;;;;;;5069705;27;98353;-78
2023/05/02 04:15:07;;;;;;;6.28;2.53;;;;;;;;;;5072057;27;99846;-79
2023/05/02 04:17:35;;;;;;;6.40;2.20;;;;;;;;;;5069588;27;99579;-79
2023/05/02 04:20:03;;;;;;;8.75;2.60;;;;;;;;;;5069748;27;98667;-81
2023/05/02 04:22:34;;;;;;;7.65;2.45;;;;;;;;;;5069680;27;99067;-79
2023/05/02 04:25:07;;;;;;;13.77;2.58;;;;;;;;;;5051155;27;98519;-79
2023/05/02 04:27:35;;;;;;;5.53;2.15;;;;;;;;;;5069466;27;99414;-79
2023/05/02 04:30:02;;;;;;;5.63;2.28;;;;;;;;;;5068768;27;101535;-79
2023/05/02 04:32:29;;;;;;;8.30;2.10;;;;;;;;;;5069420;27;98340;-78
2023/05/02 04:34:57;;;;;;;12.60;2.58;;;;;;;;;;5068507;27;100696;-79
2023/05/02 04:37:24;;;;;;;5.88;2.65;;;;;;;;;;5074149;27;98692;-79
2023/05/02 04:39:51;;;;;;;16.33;2.42;;;;;;;;;;5069677;27;101147;-79
2023/05/02 04:42:22;;;;;;;9.75;2.65;;;;;;;;;;5058653;27;101372;-79
2023/05/02 04:44:58;;;;;;;10.35;2.30;;;;;;;;;;5069475;27;98337;-78
2023/05/02 04:47:24;;;;;;;19.70;3.08;;;;;;;;;;5068937;27;100977;-79
2023/05/02 04:49:51;;;;;;;8.75;2.53;;;;;;;;;;5069675;27;98875;-79
2023/05/02 04:52:17;;;;;;;12.57;3.40;;;;;;;;;;5069409;27;98404;-80
2023/05/02 04:54:44;;;;;;;15.70;3.35;;;;;;;;;;5069264;27;100972;-79
2023/05/02 04:57:10;;;;;;;10.27;3.20;;;;;;;;;;5067720;27;101901;-81
2023/05/02 04:59:42;;;;;;;10.03;3.07;;;;;;;;;;5072378;27;98317;-79
2023/05/02 05:02:11;;;;;;;12.88;3.45;;;;;;;;;;5067811;27;100141;-79
2023/05/02 05:04:39;;;;;;;10.68;2.05;;;;;;;;;;5069241;27;98321;-79
2023/05/02 05:07:06;;;;;;;8.52;2.70;;;;;;;;;;5069217;27;98125;-80
2023/05/02 05:09:33;;;;;;;12.40;2.90;;;;;;;;;;5068615;27;102125;-79
2023/05/02 05:12:00;;;;;;;23.08;3.85;;;;;;;;;;5068615;27;98600;-79
2023/05/02 05:14:30;;;;;;;10.98;2.63;;;;;;;;;;5064842;27;101592;-81
2023/05/02 05:16:57;;;;;;;16.40;4.93;;;;;;;;;;5055325;27;100284;-80
2023/05/02 05:19:25;;;;;;;12.88;3.35;;;;;;;;;;5067525;27;98288;-79
2023/05/02 05:21:53;;;;;;;20.30;4.38;;;;;;;;;;5071969;27;99341;-80
2023/05/02 05:24:20;;;;;;;16.90;3.33;;;;;;;;;;5050597;27;99539;-80
2023/05/02 05:26:48;;;;;;;16.25;3.75;;;;;;;;;;5068455;27;100999;-79
2023/05/02 05:29:18;;;;;;;25.45;5.00;;;;;;;;;;5068342;27;99985;-80
2023/05/02 05:31:45;;;;;;;15.57;3.17;;;;;;;;;;5067799;27;98738;-79
2023/05/02 05:34:14;;;;;;;12.80;3.70;;;;;;;;;;5068986;27;99842;-80
2023/05/02 05:36:42;;;;;;;13.40;3.28;;;;;;;;;;5068068;27;100663;-80
2023/05/02 05:39:09;;;;;;;9.27;2.55;;;;;;;;;;5064879;27;98183;-80
2023/05/02 05:41:38;;;;;;;14.68;4.03;;;;;;;;;;5066952;27;100609;-78
2023/05/02 05:44:08;;;;;;;7.30;2.65;;;;;;;;;;5068510;27;101313;-79
2023/05/02 05:46:34;;;;;;;21.38;3.30;;;;;;;;;;5069129;27;98875;-79
2023/05/02 05:49:02;;;;;;;18.30;2.83;;;;;;;;;;5069065;27;100030;-79
2023/05/02 05:51:30;;;;;;;9.05;3.03;;;;;;;;;;5068083;27;98249;-79
2023/05/02 05:53:58;;;;;;;8.50;2.80;;;;;;;;;;5067865;27;98553;-80
2023/05/02 05:56:25;;;;;;;9.00;2.60;;;;;;;;;;5069472;27;98763;-79
2023/05/02 05:59:01;;;;;;;11.38;2.95;;;;;;;;;;5068811;27;98300;-79
2023/05/02 06:01:28;;;;;;;18.40;2.95;;;;;;;;;;5068568;27;98274;-80
2023/05/02 06:03:55;;;;;;;10.02;2.67;;;;;;;;;;5066854;27;99563;-80
2023/05/02 06:06:22;;;;;;;11.35;2.97;;;;;;;;;;5069399;27;98187;-82
2023/05/02 06:08:48;;;;;;;10.25;2.45;;;;;;;;;;5065605;27;101924;-79
2023/05/02 06:11:15;;;;;;;10.88;2.85;;;;;;;;;;5067964;27;99289;-79
2023/05/02 06:13:41;;;;;;;12.40;3.20;;;;;;;;;;5066672;27;100153;-79
2023/05/02 06:16:08;;;;;;;25.70;3.03;;;;;;;;;;5046384;27;101730;-77
2023/05/02 06:18:34;;;;;;;10.27;2.67;;;;;;;;;;5064047;27;99185;-79
2023/05/02 06:21:05;;;;;;;14.40;3.50;;;;;;;;;;5065820;27;98365;-79
2023/05/02 06:23:33;;;;;;;15.45;2.83;;;;;;;;;;5066696;27;100183;-79
2023/05/02 06:26:00;;;;;;;10.80;2.92;;;;;;;;;;5068320;27;100082;-79
2023/05/02 06:28:27;;;;;;;11.77;3.53;;;;;;;;;;5065715;27;99266;-80
2023/05/02 06:31:01;;;;;;;13.95;2.33;;;;;;;;;;5068103;27;98407;-81
2023/05/02 06:33:29;;;;;;;12.75;3.28;;;;;;;;;;5068162;27;99927;-78
2023/05/02 06:35:57;;;;;;;14.60;3.15;;;;;;;;;;5060113;27;99062;-78
2023/05/02 06:38:26;;;;;;;22.98;3.72;;;;;;;;;;5068004;27;98133;-78
2023/05/02 06:40:53;;;;;;;23.33;3.15;;;;;;;;;;5059105;27;98631;-78
2023/05/02 06:43:19;;;;;;;7.07;2.80;;;;;;;;;;5065867;27;99059;-78
2023/05/02 06:45:45;;;;;;;18.15;2.80;;;;;;;;;;5064408;27;98285;-79
2023/05/02 06:48:12;;;;;;;8.73;2.88;;;;;;;;;;5071347;27;99554;-79
2023/05/02 06:50:39;;;;;;;15.77;3.35;;;;;;;;;;5066853;27;98253;-79
2023/05/02 06:53:06;;;;;;;10.02;2.45;;;;;;;;;;5063475;27;99421;-80
2023/05/02 06:55:32;;;;;;;12.85;3.10;;;;;;;;;;5064961;27;100409;-78
2023/05/02 06:57:58;;;;;;;7.82;3.00;;;;;;;;;;5057684;27;98270;-80
2023/05/02 07:00:27;;;;;;;14.68;3.17;;;;;;;;;;5065977;27;98619;-79
2023/05/02 07:02:53;;;;;;;21.50;3.10;;;;;;;;;;5066180;27;100286;-80
2023/05/02 07:05:20;;;;;;;11.95;2.80;;;;;;;;;;5067664;27;98923;-78
2023/05/02 07:07:46;;;;;;;15.23;2.53;;;;;;;;;;5068894;27;99549;-80
2023/05/02 07:10:14;;;;;;;10.98;3.22;;;;;;;;;;5066027;27;98928;-79
2023/05/02 07:12:40;;;;;;;7.18;3.17;;;;;;;;;;5065618;27;99514;-80
2023/05/02 07:15:07;;;;;;;12.60;3.63;;;;;;;;;;5064285;27;100231;-78
2023/05/02 07:17:34;;;;;;;15.85;4.00;;;;;;;;;;5060970;27;99060;-79
2023/05/02 07:20:00;;;;;;;14.02;2.95;;;;;;;;;;5062515;27;99504;-80
2023/05/02 07:22:27;;;;;;;8.82;3.40;;;;;;;;;;5065940;27;100180;-79
2023/05/02 07:24:57;;;;;;;5.40;2.55;;;;;;;;;;5066917;27;98466;-79
2023/05/02 07:27:23;;;;;;;9.10;2.72;;;;;;;;;;5068332;27;99506;-80
2023/05/02 07:29:50;;;;;;;9.48;2.83;;;;;;;;;;5066593;27;99928;-79
2023/05/02 07:32:17;;;;;;;5.82;1.90;;;;;;;;;;5056508;27;98279;-79
2023/05/02 07:34:44;;;;;;;8.13;2.30;;;;;;;;;;5062690;27;99355;-79
2023/05/02 07:37:10;;;;;;;8.27;2.67;;;;;;;;;;5062280;27;99644;-79
2023/05/02 07:39:37;;;;;;;14.93;2.22;;;;;;;;;;5070392;27;98845;-80
2023/05/02 07:42:05;;;;;;;14.23;2.80;;;;;;;;;;5063828;27;98968;-79
2023/05/02 07:44:32;;;;;;;9.18;2.67;;;;;;;;;;5066382;27;98354;-78
2023/05/02 07:47:00;;;;;;;6.20;2.08;;;;;;;;;;5072628;27;99647;-78
2023/05/02 07:49:26;;;;;;;11.32;2.83;;;;;;;;;;5070514;27;99193;-79
2023/05/02 07:51:53;;;;;;;9.00;2.45;;;;;;;;;;5070877;27;98327;-78
2023/05/02 07:54:20;;;;;;;10.63;2.72;;;;;;;;;;5074124;27;98446;-78
2023/05/02 07:56:46;;;;;;;9.27;2.30;;;;;;;;;;5071342;27;98481;-78
2023/05/02 07:59:13;;;;;;;4.35;2.38;;;;;;;;;;5067910;27;99414;-78
2023/05/02 08:01:43;;;;;;;7.75;2.45;;;;;;;;;;5061226;27;98995;-78
2023/05/02 08:04:10;;;;;;;10.95;3.10;;;;;;;;;;5064845;27;98402;-78
2023/05/02 08:06:37;;;;;;;16.05;3.13;;;;;;;;;;5068831;27;99648;-78
2023/05/02 08:09:03;;;;;;;6.40;2.53;;;;;;;;;;5066809;27;99221;-78
2023/05/02 08:11:29;;;;;;;14.48;2.22;;;;;;;;;;5063344;27;98845;-78
2023/05/02 08:13:56;;;;;;;8.95;2.65;;;;;;;;;;5062243;27;99492;-78
2023/05/02 08:16:22;;;;;;;9.40;2.17;;;;;;;;;;5072902;27;98611;-78
2023/05/02 08:18:49;;;;;;;11.45;2.70;;;;;;;;;;5070466;27;98451;-79
2023/05/02 08:21:15;;;;;;;5.10;2.03;;;;;;;;;;5069810;27;100519;-79
2023/05/02 08:23:42;;;;;;;9.23;2.22;;;;;;;;;;5069019;27;98333;-78
2023/05/02 08:26:08;;;;;;;5.78;2.33;;;;;;;;;;5063814;27;99443;-79
2023/05/02 08:28:35;;;;;;;8.52;1.95;;;;;;;;;;5068686;27;98953;-78
2023/05/02 08:31:01;;;;;;;5.70;1.48;;;;;;;;;;5066828;27;98273;-79
2023/05/02 08:33:31;;;;;;;16.30;2.08;;;;;;;;;;5069890;27;99258;-79
2023/05/02 08:35:59;;;;;;;7.22;2.45;;;;;;;;;;5071433;27;99107;-80
2023/05/02 08:38:25;;;;;;;4.40;1.52;;;;;;;;;;5069848;27;98634;-79
2023/05/02 08:40:51;;;;;;;4.47;1.77;;;;;;;;;;5070406;27;99918;-80
2023/05/02 08:43:18;;;;;;;7.70;2.58;;;;;;;;;;5069595;27;98268;-79
2023/05/02 08:45:44;;;;;;;5.88;2.00;;;;;;;;;;5070112;27;99191;-79
2023/05/02 08:48:12;;;;;;;6.72;1.73;;;;;;;;;;5069097;27;100777;-79
2023/05/02 08:50:40;;;;;;;5.28;1.85;;;;;;;;;;5070184;27;98303;-80
2023/05/02 08:53:07;;;;;;;5.95;1.90;;;;;;;;;;5070512;27;99346;-79
2023/05/02 08:55:38;;;;;;;5.75;1.70;;;;;;;;;;5069792;27;100135;-79
2023/05/02 08:58:05;;;;;;;6.57;1.60;;;;;;;;;;5073089;27;99227;-80
2023/05/02 09:00:34;;;;;;;6.75;2.22;;;;;;;;;;5069438;27;99250;-80
2023/05/02 09:03:20;;;;;;;6.45;2.20;;;;;;;;;;5070483;27;98233;-81
2023/05/02 09:05:54;;;;;;;6.93;1.88;;;;;;;;;;5071551;27;99669;-81
2023/05/02 09:08:21;;;;;;;4.72;1.38;;;;;;;;;;5070043;27;99889;-80
2023/05/02 09:10:48;;;;;;;10.75;2.00;;;;;;;;;;5069157;27;98253;-81
2023/05/02 09:13:33;;;;;;;5.28;1.45;;;;;;;;;;5070182;27;99672;-80
2023/05/02 09:16:09;;;;;;;6.90;2.45;;;;;;;;;;5067163;27;100241;-79
2023/05/02 09:18:37;;;;;;;7.90;2.00;;;;;;;;;;5070139;27;98158;-80
2023/05/02 09:21:08;;;;;;;4.15;1.55;;;;;;;;;;5072217;27;98715;-75
2023/05/02 09:23:38;;;;;;;9.40;2.00;;;;;;;;;;5067910;27;98312;-80
2023/05/02 09:26:16;;;;;;;3.78;1.77;;;;;;;;;;5070415;27;99581;-79
2023/05/02 09:28:44;;;;;;;2.70;1.35;;;;;;;;;;5070216;27;99037;-79
2023/05/02 09:31:11;;;;;;;5.72;1.95;;;;;;;;;;5069484;27;98279;-78
2023/05/02 09:33:38;;;;;;;6.38;2.10;;;;;;;;;;5068815;27;98646;-79
2023/05/02 09:36:06;;;;;;;8.73;1.65;;;;;;;;;;5069579;27;100544;-78
2023/05/02 09:38:32;;;;;;;2.13;1.35;;;;;;;;;;5068741;27;98272;-79
2023/05/02 09:40:59;;;;;;;4.53;1.95;;;;;;;;;;5070428;27;99277;-78
2023/05/02 09:43:25;;;;;;;4.07;1.50;;;;;;;;;;5072806;27;99121;-79
2023/05/02 09:45:55;;;;;;;7.70;2.00;;;;;;;;;;5068182;27;101110;-78
2023/05/02 09:48:22;;;;;;;6.20;2.10;;;;;;;;;;5068394;27;99970;-79
2023/05/02 09:50:49;;;;;;;6.25;2.28;;;;;;;;;;5068769;27;98321;-78
2023/05/02 09:53:15;;;;;;;7.18;2.25;;;;;;;;;;5069579;27;99545;-78
2023/05/02 09:55:42;;;;;;;5.07;2.22;;;;;;;;;;5064410;27;99338;-79
2023/05/02 09:58:24;;;;;;;4.88;2.10;;;;;;;;;;5068714;27;98265;-80
2023/05/02 10:00:51;;;;;;;7.30;1.90;;;;;;;;;;5067662;27;100020;-82
2023/05/02 10:03:18;;;;;;;5.45;1.73;;;;;;;;;;5066257;27;100154;-80
2023/05/02 10:05:45;;;;;;;8.75;2.25;;;;;;;;;;5070911;27;98213;-81
2023/05/02 10:08:12;;;;;;;7.22;2.40;;;;;;;;;;5067105;27;100175;-79
2023/05/02 10:10:39;;;;;;;10.60;2.00;;;;;;;;;;5066435;27;98243;-80
2023/05/02 10:13:07;;;;;;;4.32;1.95;;;;;;;;;;5062539;27;98778;-76
2023/05/02 10:15:35;;;;;;;7.88;2.10;;;;;;;;;;5066175;27;99042;-78
2023/05/02 10:18:12;;;;;;;4.97;1.95;;;;;;;;;;5061129;27;98219;-80
2023/05/02 10:20:42;;;;;;;5.05;2.30;;;;;;;;;;5065342;27;98766;-79
2023/05/02 10:23:08;;;;;;;5.88;2.03;;;;;;;;;;5068848;27;101394;-80
2023/05/02 10:25:35;;;;;;;5.38;2.10;;;;;;;;;;5070928;27;98753;-81
2023/05/02 10:28:02;;;;;;;3.10;1.83;;;;;;;;;;5058743;27;100481;-80
2023/05/02 10:30:28;;;;;;;3.83;1.85;;;;;;;;;;5066713;27;100813;-81
2023/05/02 10:32:58;;;;;;;10.48;2.20;;;;;;;;;;5066038;27;99950;-79
2023/05/02 10:35:25;;;;;;;4.32;2.00;;;;;;;;;;5065089;27;99399;-81
2023/05/02 10:37:52;;;;;;;6.63;2.28;;;;;;;;;;5066813;27;98314;-82
2023/05/02 10:40:18;;;;;;;5.40;2.83;;;;;;;;;;5060445;27;99402;-82
2023/05/02 10:42:45;;;;;;;5.70;2.08;;;;;;;;;;5062410;27;100141;-82
2023/05/02 10:45:28;;;;;;;2.20;1.70;;;;;;;;;;5058766;27;98315;-81
2023/05/02 10:48:13;;;;;;;7.15;2.28;;;;;;;;;;5066848;27;99439;-82
2023/05/02 10:50:46;;;;;;;12.68;2.60;;;;;;;;;;5062081;27;98838;-81
2023/05/02 10:53:21;;;;;;;13.88;7.57;;;;;;;;;;5068212;27;99631;-80
2023/05/02 10:56:17;;;;;;;7.60;2.10;;;;;;;;;;5063384;27;100132;-80
2023/05/02 10:58:44;;;;;;;8.13;2.83;;;;;;;;;;5052479;27;100761;-82
2023/05/02 11:01:36;;;;;;;4.43;2.28;;;;;;;;;;5057945;27;98991;-81
2023/05/02 11:04:04;;;;;;;10.02;5.03;;;;;;;;;;5061992;27;102171;-80
2023/05/02 11:06:33;;;;;;;9.73;2.65;;;;;;;;;;5061829;27;99454;-81
2023/05/02 11:09:12;;;;;;;5.60;2.78;;;;;;;;;;5066572;27;99438;-81
2023/05/02 11:11:42;;;;;;;3.60;2.63;;;;;;;;;;5068080;27;99138;-80
2023/05/02 11:14:09;;;;;;;5.10;2.95;;;;;;;;;;5067994;27;99617;-80
2023/05/02 11:16:54;;;;;;;8.85;3.10;;;;;;;;;;5065460;27;100280;-81
2023/05/02 11:19:21;;;;;;;8.27;2.08;;;;;;;;;;5063087;27;98829;-82
2023/05/02 11:21:48;;;;;;;7.82;2.63;;;;;;;;;;5064723;27;99944;-80
2023/05/02 11:24:33;;;;;;;5.88;2.78;;;;;;;;;;5059775;27;101424;-81
2023/05/02 11:27:18;;;;;;;9.82;2.05;;;;;;;;;;5061133;27;98207;-76
2023/05/02 11:29:50;;;;;;;7.95;3.15;;;;;;;;;;5058572;27;99928;-76
2023/05/02 11:32:17;;;;;;;6.05;3.25;;;;;;;;;;5067417;27;99318;-81
2023/05/02 11:34:44;;;;;;;9.07;2.65;;;;;;;;;;5070545;27;99637;-83
2023/05/02 11:37:11;;;;;;;6.38;2.50;;;;;;;;;;5067544;27;100577;-81
2023/05/02 11:39:37;;;;;;;10.57;2.97;;;;;;;;;;5065403;27;99433;-82
2023/05/02 11:42:04;;;;;;;8.90;2.78;;;;;;;;;;5069580;27;99568;-81
2023/05/02 11:44:30;;;;;;;11.20;2.58;;;;;;;;;;5067543;27;99390;-81
2023/05/02 11:46:57;;;;;;;6.75;3.05;;;;;;;;;;5069577;27;98656;-80
2023/05/02 11:49:23;;;;;;;13.75;2.92;;;;;;;;;;5068999;27;98734;-81
2023/05/02 11:51:50;;;;;;;13.00;2.97;;;;;;;;;;5060612;27;99108;-80
2023/05/02 11:54:17;;;;;;;10.40;2.78;;;;;;;;;;5055024;27;98321;-81
2023/05/02 11:56:44;;;;;;;6.45;2.85;;;;;;;;;;5067878;27;98565;-81
2023/05/02 11:59:10;;;;;;;12.45;2.83;;;;;;;;;;5068410;27;98219;-79
2023/05/02 12:01:46;;;;;;;13.75;2.85;;;;;;;;;;5068884;27;99498;-79
2023/05/02 12:04:12;;;;;;;8.77;2.67;;;;;;;;;;5068563;27;100258;-79
2023/05/02 12:06:52;;;;;;;9.73;3.10;;;;;;;;;;5067892;27;98279;-82
2023/05/02 12:09:20;;;;;;;8.45;2.63;;;;;;;;;;5067453;27;99024;-82
2023/05/02 12:11:53;;;;;;;10.38;2.25;;;;;;;;;;5062872;27;99106;-80
2023/05/02 12:14:27;;;;;;;11.38;2.60;;;;;;;;;;5067473;27;99449;-81
2023/05/02 12:16:54;;;;;;;4.13;2.50;;;;;;;;;;5067925;27;98605;-82
2023/05/02 12:19:21;;;;;;;7.95;2.55;;;;;;;;;;5068800;27;100062;-81
2023/05/02 12:21:49;;;;;;;6.25;3.15;;;;;;;;;;5068677;27;99332;-81
2023/05/02 12:24:16;;;;;;;8.07;3.40;;;;;;;;;;5069319;27;99856;-81
2023/05/02 12:26:42;;;;;;;6.88;2.92;;;;;;;;;;5071821;27;99204;-81
2023/05/02 12:29:09;;;;;;;13.63;3.00;;;;;;;;;;5071085;27;99491;-81
2023/05/02 12:31:38;;;;;;;10.18;2.63;;;;;;;;;;5066647;27;100843;-79
2023/05/02 12:34:05;;;;;;;6.22;2.03;;;;;;;;;;5066933;27;98569;-79
2023/05/02 12:36:34;;;;;;;6.07;2.25;;;;;;;;;;5071412;27;99219;-80
2023/05/02 12:39:01;;;;;;;5.03;2.63;;;;;;;;;;5077171;27;99882;-80
2023/05/02 12:41:35;;;;;;;6.45;2.30;;;;;;;;;;5065729;27;100463;-79
2023/05/02 12:44:02;;;;;;;14.88;2.42;;;;;;;;;;5062756;27;99936;-80
2023/05/02 12:46:30;;;;;;;7.32;2.90;;;;;;;;;;5070217;27;98301;-84
2023/05/02 12:49:08;;;;;;;10.20;2.80;;;;;;;;;;5067110;27;100243;-82
2023/05/02 12:51:35;;;;;;;9.45;2.85;;;;;;;;;;5070406;27;100081;-82
2023/05/02 12:54:02;;;;;;;9.20;3.03;;;;;;;;;;5071690;27;98243;-82
2023/05/02 12:56:31;;;;;;;9.52;2.25;;;;;;;;;;5069795;27;99684;-82
2023/05/02 12:59:00;;;;;;;9.10;2.90;;;;;;;;;;5070149;27;99916;-82
2023/05/02 13:01:27;;;;;;;9.00;2.97;;;;;;;;;;5071690;27;98560;-83
2023/05/02 13:03:54;;;;;;;4.10;1.88;;;;;;;;;;5070099;27;100661;-82
2023/05/02 13:06:20;;;;;;;13.48;2.65;;;;;;;;;;5070752;27;98330;-82
2023/05/02 13:08:47;;;;;;;9.07;3.47;;;;;;;;;;5068387;27;98643;-81
2023/05/02 13:11:14;;;;;;;8.07;2.55;;;;;;;;;;5067744;27;98148;-81
2023/05/02 13:13:40;;;;;;;5.40;2.92;;;;;;;;;;5065540;27;98184;-81
2023/05/02 13:16:07;;;;;;;4.28;2.03;;;;;;;;;;5067421;27;99631;-82
2023/05/02 13:18:33;;;;;;;8.57;2.92;;;;;;;;;;5068349;27;100094;-81
2023/05/02 13:21:00;;;;;;;8.43;2.53;;;;;;;;;;5066770;27;99169;-79
2023/05/02 13:23:26;;;;;;;2.60;2.30;;;;;;;;;;5068032;27;99260;-82
2023/05/02 13:25:54;;;;;;;5.75;2.20;;;;;;;;;;5066713;27;98222;-82
2023/05/02 13:28:20;;;;;;;3.13;1.52;;;;;;;;;;5068077;27;99368;-81
2023/05/02 13:30:47;;;;;;;3.65;1.80;;;;;;;;;;5068004;27;100219;-80
2023/05/02 13:33:13;;;;;;;7.05;2.53;;;;;;;;;;5069080;27;98252;-80
2023/05/02 13:35:40;;;;;;;6.60;1.90;;;;;;;;;;5070793;27;100464;-80
2023/05/02 13:38:06;;;;;;;4.32;1.83;;;;;;;;;;5069956;27;99741;-79
2023/05/02 13:40:33;;;;;;;7.10;2.13;;;;;;;;;;5069658;27;98906;-81
2023/05/02 13:43:00;;;;;;;7.63;2.22;;;;;;;;;;5070798;27;99481;-82
2023/05/02 13:45:26;;;;;;;5.57;2.15;;;;;;;;;;5071565;27;98968;-80
2023/05/02 13:47:53;;;;;;;3.17;1.80;;;;;;;;;;5069954;27;99602;-81
2023/05/02 13:50:20;;;;;;;5.90;1.98;;;;;;;;;;5069185;27;100442;-80
2023/05/02 13:52:46;;;;;;;4.05;2.38;;;;;;;;;;5064835;27;99039;-80
2023/05/02 13:55:14;;;;;;;8.00;2.38;;;;;;;;;;5066224;27;98815;-81
2023/05/02 13:57:41;;;;;;;4.00;1.90;;;;;;;;;;5067927;27;99848;-80
2023/05/02 14:00:08;;;;;;;5.45;2.13;;;;;;;;;;5069220;27;98249;-80
2023/05/02 14:02:35;;;;;;;8.70;2.38;;;;;;;;;;5069715;27;98415;-81
2023/05/02 14:05:02;;;;;;;6.35;2.00;;;;;;;;;;5062835;27;100329;-81
2023/05/02 14:07:29;;;;;;;5.20;2.22;;;;;;;;;;5072624;27;99610;-82
2023/05/02 14:09:55;;;;;;;4.03;1.77;;;;;;;;;;5061099;27;100400;-81
2023/05/02 14:12:22;;;;;;;5.45;1.95;;;;;;;;;;5058446;27;98229;-82
2023/05/02 14:14:48;;;;;;;5.15;1.85;;;;;;;;;;5068603;27;99692;-81
2023/05/02 14:17:14;;;;;;;7.63;2.25;;;;;;;;;;5064616;27;100011;-81
2023/05/02 14:19:41;;;;;;;4.82;1.90;;;;;;;;;;5065342;27;98275;-80
2023/05/02 14:22:07;;;;;;;4.97;2.03;;;;;;;;;;5068709;27;99376;-82
2023/05/02 14:24:33;;;;;;;6.00;1.67;;;;;;;;;;5069061;27;99917;-81
2023/05/02 14:27:00;;;;;;;4.50;2.03;;;;;;;;;;5068913;27;98516;-81
2023/05/02 14:29:26;;;;;;;6.03;2.00;;;;;;;;;;5068649;27;99837;-80
2023/05/02 14:31:53;;;;;;;1.63;1.48;;;;;;;;;;5069322;27;98535;-81
2023/05/02 14:34:20;;;;;;;6.30;2.00;;;;;;;;;;5068884;27;99590;-82
2023/05/02 14:36:47;;;;;;;6.45;1.98;;;;;;;;;;5069119;27;99880;-81
2023/05/02 14:39:13;;;;;;;4.85;1.67;;;;;;;;;;5069877;27;98304;-80
2023/05/02 14:41:40;;;;;;;7.63;1.75;;;;;;;;;;5069823;27;99424;-81